sensor_id;sensor_type;location;lat;lon;timestamp;pressure;altitude;pressure_sealevel;temperature;humidity
66486;BME280;53303;47.476;8.084;2023-08-01T00:00:12;94592.59;;;22.95;50.68
66486;BME280;53303;47.476;8.084;2023-08-01T00:02:40;94575.19;;;22.94;50.52
66486;BME280;53303;47.476;8.084;2023-08-01T00:05:10;94558.84;;;22.91;50.18
66486;BME280;53303;47.476;8.084;2023-08-01T00:07:38;94552.31;;;22.88;50.49
66486;BME280;53303;47.476;8.084;2023-08-01T00:10:03;94555.50;;;22.92;50.11
66486;BME280;53303;47.476;8.084;2023-08-01T00:12:29;94568.66;;;22.92;50.47
66486;BME280;53303;47.476;8.084;2023-08-01T00:14:54;94547.84;;;22.85;50.46
66486;BME280;53303;47.476;8.084;2023-08-01T00:17:22;94546.41;;;22.92;50.36
66486;BME280;53303;47.476;8.084;2023-08-01T00:19:50;94552.16;;;22.94;50.58
66486;BME280;53303;47.476;8.084;2023-08-01T00:22:17;94550.50;;;22.91;50.51
66486;BME280;53303;47.476;8.084;2023-08-01T00:24:47;94531.03;;;22.91;50.36
66486;BME280;53303;47.476;8.084;2023-08-01T00:27:13;94536.03;;;22.92;50.41
66486;BME280;53303;47.476;8.084;2023-08-01T00:29:39;94538.81;;;22.92;50.49
66486;BME280;53303;47.476;8.084;2023-08-01T00:32:07;94525.59;;;22.85;50.35
66486;BME280;53303;47.476;8.084;2023-08-01T00:34:32;94519.47;;;22.87;50.28
66486;BME280;53303;47.476;8.084;2023-08-01T00:37:00;94528.03;;;22.89;50.44
66486;BME280;53303;47.476;8.084;2023-08-01T00:39:28;94536.78;;;22.93;50.39
66486;BME280;53303;47.476;8.084;2023-08-01T00:41:56;94535.81;;;22.90;50.44
66486;BME280;53303;47.476;8.084;2023-08-01T00:44:26;94528.97;;;22.91;50.40
66486;BME280;53303;47.476;8.084;2023-08-01T00:46:52;94529.16;;;22.93;50.33
66486;BME280;53303;47.476;8.084;2023-08-01T00:49:17;94523.97;;;22.90;50.38
66486;BME280;53303;47.476;8.084;2023-08-01T00:51:45;94505.19;;;22.83;50.49
66486;BME280;53303;47.476;8.084;2023-08-01T00:54:10;94521.38;;;22.92;50.69
66486;BME280;53303;47.476;8.084;2023-08-01T00:56:36;94513.03;;;22.92;50.43
66486;BME280;53303;47.476;8.084;2023-08-01T00:59:02;94513.78;;;22.92;50.35
66486;BME280;53303;47.476;8.084;2023-08-01T01:01:29;94525.09;;;22.94;50.45
66486;BME280;53303;47.476;8.084;2023-08-01T01:03:57;94505.56;;;22.87;50.29
66486;BME280;53303;47.476;8.084;2023-08-01T01:08:50;94504.88;;;22.94;50.45
66486;BME280;53303;47.476;8.084;2023-08-01T01:11:22;94493.00;;;22.93;50.47
66486;BME280;53303;47.476;8.084;2023-08-01T01:13:51;94485.00;;;22.90;50.38
66486;BME280;53303;47.476;8.084;2023-08-01T01:16:19;94489.50;;;22.93;50.44
66486;BME280;53303;47.476;8.084;2023-08-01T01:18:44;94486.72;;;22.93;50.59
66486;BME280;53303;47.476;8.084;2023-08-01T01:21:12;94475.94;;;22.89;50.45
66486;BME280;53303;47.476;8.084;2023-08-01T01:23:40;94479.44;;;22.90;50.63
66486;BME280;53303;47.476;8.084;2023-08-01T01:26:07;94477.41;;;22.90;50.49
66486;BME280;53303;47.476;8.084;2023-08-01T01:28:33;94483.72;;;22.91;50.44
66486;BME280;53303;47.476;8.084;2023-08-01T01:31:03;94466.63;;;22.87;50.83
66486;BME280;53303;47.476;8.084;2023-08-01T01:33:31;94463.66;;;22.85;50.28
66486;BME280;53303;47.476;8.084;2023-08-01T01:36:00;94477.94;;;22.89;50.46
66486;BME280;53303;47.476;8.084;2023-08-01T01:38:27;94481.88;;;22.93;50.52
66486;BME280;53303;47.476;8.084;2023-08-01T01:40:55;94465.91;;;22.86;50.37
66486;BME280;53303;47.476;8.084;2023-08-01T01:43:22;94466.28;;;22.90;50.79
66486;BME280;53303;47.476;8.084;2023-08-01T01:45:48;94474.97;;;22.87;50.40
66486;BME280;53303;47.476;8.084;2023-08-01T01:48:13;94470.75;;;22.93;50.59
66486;BME280;53303;47.476;8.084;2023-08-01T01:50:41;94466.63;;;22.87;50.54
66486;BME280;53303;47.476;8.084;2023-08-01T01:53:06;94459.63;;;22.93;50.62
66486;BME280;53303;47.476;8.084;2023-08-01T01:55:34;94471.09;;;22.90;50.19
66486;BME280;53303;47.476;8.084;2023-08-01T01:58:02;94464.03;;;22.89;50.39
66486;BME280;53303;47.476;8.084;2023-08-01T02:00:27;94464.81;;;22.89;50.54
66486;BME280;53303;47.476;8.084;2023-08-01T02:02:52;94462.22;;;22.91;50.21
66486;BME280;53303;47.476;8.084;2023-08-01T02:05:18;94457.19;;;22.90;50.44
66486;BME280;53303;47.476;8.084;2023-08-01T02:07:46;94459.06;;;22.87;50.49
66486;BME280;53303;47.476;8.084;2023-08-01T02:10:11;94457.56;;;22.86;50.19
66486;BME280;53303;47.476;8.084;2023-08-01T02:12:36;94461.25;;;22.89;50.29
66486;BME280;53303;47.476;8.084;2023-08-01T02:15:05;94467.78;;;22.91;50.35
66486;BME280;53303;47.476;8.084;2023-08-01T02:17:33;94468.88;;;22.88;50.21
66486;BME280;53303;47.476;8.084;2023-08-01T02:19:58;94452.00;;;22.86;50.50
66486;BME280;53303;47.476;8.084;2023-08-01T02:22:25;94465.00;;;22.91;50.31
66486;BME280;53303;47.476;8.084;2023-08-01T02:24:53;94454.97;;;22.88;50.29
66486;BME280;53303;47.476;8.084;2023-08-01T02:27:21;94455.69;;;22.89;50.36
66486;BME280;53303;47.476;8.084;2023-08-01T02:29:51;94454.22;;;22.88;50.44
66486;BME280;53303;47.476;8.084;2023-08-01T02:32:17;94462.94;;;22.92;50.47
66486;BME280;53303;47.476;8.084;2023-08-01T02:34:42;94461.84;;;22.87;50.35
66486;BME280;53303;47.476;8.084;2023-08-01T02:37:11;94456.81;;;22.86;50.42
66486;BME280;53303;47.476;8.084;2023-08-01T02:39:36;94469.06;;;22.90;50.30
66486;BME280;53303;47.476;8.084;2023-08-01T02:42:04;94469.06;;;22.90;50.73
66486;BME280;53303;47.476;8.084;2023-08-01T02:44:31;94484.09;;;22.87;50.76
66486;BME280;53303;47.476;8.084;2023-08-01T02:46:57;94477.94;;;22.89;50.45
66486;BME280;53303;47.476;8.084;2023-08-01T02:49:25;94469.41;;;22.87;50.32
66486;BME280;53303;47.476;8.084;2023-08-01T02:51:50;94480.00;;;22.88;50.71
66486;BME280;53303;47.476;8.084;2023-08-01T02:54:18;94477.03;;;22.86;50.26
66486;BME280;53303;47.476;8.084;2023-08-01T02:56:46;94479.25;;;22.88;50.55
66486;BME280;53303;47.476;8.084;2023-08-01T02:59:11;94468.84;;;22.80;50.61
66486;BME280;53303;47.476;8.084;2023-08-01T03:01:37;94495.59;;;22.91;50.30
66486;BME280;53303;47.476;8.084;2023-08-01T03:04:06;94489.06;;;22.89;50.26
66486;BME280;53303;47.476;8.084;2023-08-01T03:06:32;94490.56;;;22.90;50.13
66486;BME280;53303;47.476;8.084;2023-08-01T03:09:00;94483.13;;;22.85;50.36
66486;BME280;53303;47.476;8.084;2023-08-01T03:11:26;94483.50;;;22.89;50.27
66486;BME280;53303;47.476;8.084;2023-08-01T03:13:56;94483.88;;;22.85;50.19
66486;BME280;53303;47.476;8.084;2023-08-01T03:16:22;94493.72;;;22.86;50.03
66486;BME280;53303;47.476;8.084;2023-08-01T03:18:47;94508.53;;;22.89;50.15
66486;BME280;53303;47.476;8.084;2023-08-01T03:21:15;94498.19;;;22.89;50.15
66486;BME280;53303;47.476;8.084;2023-08-01T03:23:41;94483.31;;;22.87;49.97
66486;BME280;53303;47.476;8.084;2023-08-01T03:26:06;94501.88;;;22.84;50.29
66486;BME280;53303;47.476;8.084;2023-08-01T03:28:32;94491.66;;;22.87;50.06
66486;BME280;53303;47.476;8.084;2023-08-01T03:30:57;94498.72;;;22.88;49.94
66486;BME280;53303;47.476;8.084;2023-08-01T03:33:25;94484.09;;;22.87;49.94
66486;BME280;53303;47.476;8.084;2023-08-01T03:35:54;94482.94;;;22.83;49.79
66486;BME280;53303;47.476;8.084;2023-08-01T03:38:21;94485.19;;;22.84;49.89
66486;BME280;53303;47.476;8.084;2023-08-01T03:40:47;94492.97;;;22.86;49.89
66486;BME280;53303;47.476;8.084;2023-08-01T03:43:14;94488.69;;;22.85;49.70
66486;BME280;53303;47.476;8.084;2023-08-01T03:45:40;94493.16;;;22.88;50.05
66486;BME280;53303;47.476;8.084;2023-08-01T03:48:10;94483.13;;;22.85;49.86
66486;BME280;53303;47.476;8.084;2023-08-01T03:50:39;94470.13;;;22.79;49.82
66486;BME280;53303;47.476;8.084;2023-08-01T03:53:04;94478.13;;;22.83;49.72
66486;BME280;53303;47.476;8.084;2023-08-01T03:55:32;94470.72;;;22.86;49.55
66486;BME280;53303;47.476;8.084;2023-08-01T03:57:58;94458.66;;;22.83;49.52
66486;BME280;53303;47.476;8.084;2023-08-01T04:00:26;94462.94;;;22.84;49.58
66486;BME280;53303;47.476;8.084;2023-08-01T04:02:57;94491.66;;;22.87;49.65
66486;BME280;53303;47.476;8.084;2023-08-01T04:05:24;94497.03;;;22.85;49.69
66486;BME280;53303;47.476;8.084;2023-08-01T04:07:50;94493.53;;;22.84;49.54
66486;BME280;53303;47.476;8.084;2023-08-01T04:10:20;94495.75;;;22.86;49.49
66486;BME280;53303;47.476;8.084;2023-08-01T04:12:45;94494.44;;;22.87;49.26
66486;BME280;53303;47.476;8.084;2023-08-01T04:15:13;94490.00;;;22.84;49.34
66486;BME280;53303;47.476;8.084;2023-08-01T04:17:38;94507.63;;;22.86;49.34
66486;BME280;53303;47.476;8.084;2023-08-01T04:20:10;94504.84;;;22.86;49.36
66486;BME280;53303;47.476;8.084;2023-08-01T04:22:38;94484.78;;;22.80;49.36
66486;BME280;53303;47.476;8.084;2023-08-01T04:25:06;94479.38;;;22.74;49.34
66486;BME280;53303;47.476;8.084;2023-08-01T04:27:31;94488.16;;;22.86;49.18
66486;BME280;53303;47.476;8.084;2023-08-01T04:29:57;94490.19;;;22.86;49.25
66486;BME280;53303;47.476;8.084;2023-08-01T04:32:24;94487.22;;;22.84;49.46
66486;BME280;53303;47.476;8.084;2023-08-01T04:34:52;94492.78;;;22.84;49.21
66486;BME280;53303;47.476;8.084;2023-08-01T04:37:17;94486.47;;;22.83;49.32
66486;BME280;53303;47.476;8.084;2023-08-01T04:39:48;94485.19;;;22.84;49.26
66486;BME280;53303;47.476;8.084;2023-08-01T04:42:15;94485.38;;;22.86;49.15
66486;BME280;53303;47.476;8.084;2023-08-01T04:44:43;94468.09;;;22.80;49.46
66486;BME280;53303;47.476;8.084;2023-08-01T04:47:09;94477.19;;;22.80;49.43
66486;BME280;53303;47.476;8.084;2023-08-01T04:49:37;94471.81;;;22.83;49.28
66486;BME280;53303;47.476;8.084;2023-08-01T04:52:05;94472.91;;;22.79;49.48
66486;BME280;53303;47.476;8.084;2023-08-01T04:54:35;94469.03;;;22.83;49.67
66486;BME280;53303;47.476;8.084;2023-08-01T04:57:03;94458.63;;;22.75;49.52
66486;BME280;53303;47.476;8.084;2023-08-01T04:59:28;94471.06;;;22.82;49.36
66486;BME280;53303;47.476;8.084;2023-08-01T05:01:54;94474.06;;;22.84;49.50
66486;BME280;53303;47.476;8.084;2023-08-01T05:04:19;94474.41;;;22.80;49.68
66486;BME280;53303;47.476;8.084;2023-08-01T05:06:47;94480.31;;;22.77;49.56
66486;BME280;53303;47.476;8.084;2023-08-01T05:09:12;94488.50;;;22.83;49.79
66486;BME280;53303;47.476;8.084;2023-08-01T05:11:40;94492.38;;;22.79;49.72
66486;BME280;53303;47.476;8.084;2023-08-01T05:14:05;94504.66;;;22.84;49.72
66486;BME280;53303;47.476;8.084;2023-08-01T05:16:31;94484.78;;;22.80;49.90
66486;BME280;53303;47.476;8.084;2023-08-01T05:18:56;94475.88;;;22.81;49.73
66486;BME280;53303;47.476;8.084;2023-08-01T05:21:22;94487.75;;;22.82;49.77
66486;BME280;53303;47.476;8.084;2023-08-01T05:23:52;94471.44;;;22.78;49.81
66486;BME280;53303;47.476;8.084;2023-08-01T05:26:17;94479.78;;;22.78;49.95
66486;BME280;53303;47.476;8.084;2023-08-01T05:28:43;94480.16;;;22.83;49.80
66486;BME280;53303;47.476;8.084;2023-08-01T05:31:11;94478.09;;;22.75;50.14
66486;BME280;53303;47.476;8.084;2023-08-01T05:33:36;94470.13;;;22.79;49.98
66486;BME280;53303;47.476;8.084;2023-08-01T05:36:01;94467.88;;;22.78;50.15
66486;BME280;53303;47.476;8.084;2023-08-01T05:38:27;94470.13;;;22.79;49.94
66486;BME280;53303;47.476;8.084;2023-08-01T05:40:52;94471.06;;;22.82;50.05
66486;BME280;53303;47.476;8.084;2023-08-01T05:43:18;94469.19;;;22.77;50.04
66486;BME280;53303;47.476;8.084;2023-08-01T05:45:43;94477.00;;;22.78;50.23
66486;BME280;53303;47.476;8.084;2023-08-01T05:48:09;94492.56;;;22.81;50.43
66486;BME280;53303;47.476;8.084;2023-08-01T05:50:35;94499.63;;;22.83;50.35
66486;BME280;53303;47.476;8.084;2023-08-01T05:53:01;94497.75;;;22.77;50.52
66486;BME280;53303;47.476;8.084;2023-08-01T05:55:26;94508.53;;;22.81;50.68
66486;BME280;53303;47.476;8.084;2023-08-01T05:57:52;94514.63;;;22.79;50.55
66486;BME280;53303;47.476;8.084;2023-08-01T06:00:22;94506.47;;;22.81;50.29
66486;BME280;53303;47.476;8.084;2023-08-01T06:02:47;94503.69;;;22.81;50.66
66486;BME280;53303;47.476;8.084;2023-08-01T06:05:18;94490.91;;;22.78;50.75
66486;BME280;53303;47.476;8.084;2023-08-01T06:07:45;94469.00;;;22.75;50.78
66486;BME280;53303;47.476;8.084;2023-08-01T06:10:11;94475.50;;;22.77;50.97
66486;BME280;53303;47.476;8.084;2023-08-01T06:12:36;94454.75;;;22.78;50.76
66486;BME280;53303;47.476;8.084;2023-08-01T06:15:03;94438.59;;;22.77;50.99
66486;BME280;53303;47.476;8.084;2023-08-01T06:17:33;94440.66;;;22.76;50.89
66486;BME280;53303;47.476;8.084;2023-08-01T06:20:03;94436.75;;;22.79;51.00
66486;BME280;53303;47.476;8.084;2023-08-01T06:22:31;94421.19;;;22.76;51.20
66486;BME280;53303;47.476;8.084;2023-08-01T06:24:56;94420.81;;;22.80;51.05
66486;BME280;53303;47.476;8.084;2023-08-01T06:27:24;94410.97;;;22.79;51.06
66486;BME280;53303;47.476;8.084;2023-08-01T06:29:52;94399.88;;;22.79;50.74
66486;BME280;53303;47.476;8.084;2023-08-01T06:32:20;94367.75;;;22.70;50.78
66486;BME280;53303;47.476;8.084;2023-08-01T06:34:45;94352.75;;;22.73;50.86
66486;BME280;53303;47.476;8.084;2023-08-01T06:37:13;94366.28;;;22.69;50.71
66486;BME280;53303;47.476;8.084;2023-08-01T06:39:38;94370.00;;;22.72;50.85
66486;BME280;53303;47.476;8.084;2023-08-01T06:42:06;94370.19;;;22.74;50.66
66486;BME280;53303;47.476;8.084;2023-08-01T06:44:31;94384.69;;;22.80;51.00
66486;BME280;53303;47.476;8.084;2023-08-01T06:46:57;94370.19;;;22.81;50.80
66486;BME280;53303;47.476;8.084;2023-08-01T06:49:24;94378.75;;;22.84;50.55
66486;BME280;53303;47.476;8.084;2023-08-01T06:51:50;94382.81;;;22.83;50.55
66486;BME280;53303;47.476;8.084;2023-08-01T06:54:15;94398.97;;;22.84;50.19
66486;BME280;53303;47.476;8.084;2023-08-01T06:56:45;94373.56;;;22.80;49.81
66486;BME280;53303;47.476;8.084;2023-08-01T06:59:16;94387.25;;;22.78;50.06
66486;BME280;53303;47.476;8.084;2023-08-01T07:01:46;94386.69;;;22.79;49.74
66486;BME280;53303;47.476;8.084;2023-08-01T07:04:15;94411.72;;;22.79;49.80
66486;BME280;53303;47.476;8.084;2023-08-01T07:06:42;94397.63;;;22.77;49.87
66486;BME280;53303;47.476;8.084;2023-08-01T07:09:08;94410.97;;;22.79;49.59
66486;BME280;53303;47.476;8.084;2023-08-01T07:11:36;94393.16;;;22.74;49.62
66486;BME280;53303;47.476;8.084;2023-08-01T07:14:01;94391.69;;;22.73;49.38
66486;BME280;53303;47.476;8.084;2023-08-01T07:16:27;94405.03;;;22.75;49.42
66486;BME280;53303;47.476;8.084;2023-08-01T07:18:52;94399.66;;;22.77;49.39
66486;BME280;53303;47.476;8.084;2023-08-01T07:21:20;94398.00;;;22.74;49.18
66486;BME280;53303;47.476;8.084;2023-08-01T07:23:46;94381.31;;;22.74;49.29
66486;BME280;53303;47.476;8.084;2023-08-01T07:26:15;94401.50;;;22.74;49.02
66486;BME280;53303;47.476;8.084;2023-08-01T07:28:41;94393.50;;;22.71;49.01
66486;BME280;53303;47.476;8.084;2023-08-01T07:31:07;94421.19;;;22.76;49.02
66486;BME280;53303;47.476;8.084;2023-08-01T07:33:34;94440.66;;;22.76;48.91
66486;BME280;53303;47.476;8.084;2023-08-01T07:36:02;94425.59;;;22.72;48.96
66486;BME280;53303;47.476;8.084;2023-08-01T07:38:28;94413.38;;;22.75;48.89
66486;BME280;53303;47.476;8.084;2023-08-01T07:40:54;94400.22;;;22.75;49.06
66486;BME280;53303;47.476;8.084;2023-08-01T07:43:22;94399.47;;;22.75;48.99
66486;BME280;53303;47.476;8.084;2023-08-01T07:45:48;94404.63;;;22.71;49.20
66486;BME280;53303;47.476;8.084;2023-08-01T07:48:17;94385.34;;;22.65;49.00
66486;BME280;53303;47.476;8.084;2023-08-01T07:50:45;94416.53;;;22.71;48.85
66486;BME280;53303;47.476;8.084;2023-08-01T07:53:11;94426.88;;;22.71;49.16
66486;BME280;53303;47.476;8.084;2023-08-01T07:55:36;94434.69;;;22.72;49.01
66486;BME280;53303;47.476;8.084;2023-08-01T07:58:09;94425.41;;;22.70;48.95
66486;BME280;53303;47.476;8.084;2023-08-01T08:00:35;94432.09;;;22.74;49.14
66486;BME280;53303;47.476;8.084;2023-08-01T08:03:00;94432.25;;;22.69;49.16
66486;BME280;53303;47.476;8.084;2023-08-01T08:05:28;94433.41;;;22.73;48.95
66486;BME280;53303;47.476;8.084;2023-08-01T08:07:55;94424.09;;;22.71;49.00
66486;BME280;53303;47.476;8.084;2023-08-01T08:10:21;94429.28;;;22.67;49.16
66486;BME280;53303;47.476;8.084;2023-08-01T08:12:49;94437.66;;;22.74;49.25
66486;BME280;53303;47.476;8.084;2023-08-01T08:15:17;94448.22;;;22.76;49.31
66486;BME280;53303;47.476;8.084;2023-08-01T08:17:42;94420.59;;;22.70;49.48
66486;BME280;53303;47.476;8.084;2023-08-01T08:20:08;94418.53;;;22.71;49.49
66486;BME280;53303;47.476;8.084;2023-08-01T08:22:33;94417.44;;;22.74;49.29
66486;BME280;53303;47.476;8.084;2023-08-01T08:24:59;94427.47;;;22.69;49.78
66486;BME280;53303;47.476;8.084;2023-08-01T08:27:24;94438.97;;;22.73;49.44
66486;BME280;53303;47.476;8.084;2023-08-01T08:29:50;94443.97;;;22.75;49.37
66486;BME280;53303;47.476;8.084;2023-08-01T08:32:16;94443.56;;;22.71;49.39
66486;BME280;53303;47.476;8.084;2023-08-01T08:34:43;94442.47;;;22.74;49.40
66486;BME280;53303;47.476;8.084;2023-08-01T08:37:08;94444.53;;;22.73;49.47
66486;BME280;53303;47.476;8.084;2023-08-01T08:39:34;94446.94;;;22.69;49.55
66486;BME280;53303;47.476;8.084;2023-08-01T08:41:59;94448.59;;;22.72;49.46
66486;BME280;53303;47.476;8.084;2023-08-01T08:44:27;94465.81;;;22.71;49.66
66486;BME280;53303;47.476;8.084;2023-08-01T08:47:02;94433.56;;;22.68;49.56
66486;BME280;53303;47.476;8.084;2023-08-01T08:49:29;94459.53;;;22.70;49.68
66486;BME280;53303;47.476;8.084;2023-08-01T08:52:01;94443.38;;;22.69;49.72
66486;BME280;53303;47.476;8.084;2023-08-01T08:54:28;94450.63;;;22.72;49.72
66486;BME280;53303;47.476;8.084;2023-08-01T08:56:55;94447.13;;;22.71;49.74
66486;BME280;53303;47.476;8.084;2023-08-01T08:59:23;94454.16;;;22.72;49.97
66486;BME280;53303;47.476;8.084;2023-08-01T09:01:50;94458.03;;;22.69;50.04
66486;BME280;53303;47.476;8.084;2023-08-01T09:04:15;94445.22;;;22.66;50.04
66486;BME280;53303;47.476;8.084;2023-08-01T09:06:45;94452.69;;;22.71;50.12
66486;BME280;53303;47.476;8.084;2023-08-01T09:09:14;94454.69;;;22.71;49.92
66486;BME280;53303;47.476;8.084;2023-08-01T09:11:49;94458.97;;;22.72;50.09
66486;BME280;53303;47.476;8.084;2023-08-01T09:14:15;94453.97;;;22.70;50.28
66486;BME280;53303;47.476;8.084;2023-08-01T09:16:44;94461.75;;;22.72;50.42
66486;BME280;53303;47.476;8.084;2023-08-01T09:19:19;94455.03;;;22.67;50.21
66486;BME280;53303;47.476;8.084;2023-08-01T09:21:47;94457.69;;;22.73;50.35
66486;BME280;53303;47.476;8.084;2023-08-01T09:24:20;94448.03;;;22.74;50.42
66486;BME280;53303;47.476;8.084;2023-08-01T09:26:49;94440.06;;;22.70;50.53
66486;BME280;53303;47.476;8.084;2023-08-01T09:29:18;94441.56;;;22.71;50.38
66486;BME280;53303;47.476;8.084;2023-08-01T09:31:45;94440.25;;;22.72;50.54
66486;BME280;53303;47.476;8.084;2023-08-01T09:34:24;94443.78;;;22.73;50.65
66486;BME280;53303;47.476;8.084;2023-08-01T09:36:58;94435.44;;;22.73;50.61
66486;BME280;53303;47.476;8.084;2023-08-01T09:39:26;94445.44;;;22.76;50.71
66486;BME280;53303;47.476;8.084;2023-08-01T09:42:01;94445.25;;;22.74;50.66
66486;BME280;53303;47.476;8.084;2023-08-01T09:44:28;94440.66;;;22.76;50.65
66486;BME280;53303;47.476;8.084;2023-08-01T09:47:01;94456.03;;;22.77;50.71
66486;BME280;53303;47.476;8.084;2023-08-01T09:49:27;94465.88;;;22.78;50.89
66486;BME280;53303;47.476;8.084;2023-08-01T09:51:55;94462.50;;;22.72;51.08
66486;BME280;53303;47.476;8.084;2023-08-01T09:54:22;94460.47;;;22.73;50.99
66486;BME280;53303;47.476;8.084;2023-08-01T09:56:50;94470.66;;;22.78;50.95
66486;BME280;53303;47.476;8.084;2023-08-01T09:59:21;94462.69;;;22.74;50.97
66486;BME280;53303;47.476;8.084;2023-08-01T10:01:50;94469.56;;;22.73;51.23
66486;BME280;53303;47.476;8.084;2023-08-01T10:04:23;94468.06;;;22.72;51.06
66486;BME280;53303;47.476;8.084;2023-08-01T10:06:58;94477.53;;;22.77;51.14
66486;BME280;53303;47.476;8.084;2023-08-01T10:09:24;94469.94;;;22.77;51.22
66486;BME280;53303;47.476;8.084;2023-08-01T10:11:56;94453.97;;;22.78;51.18
66486;BME280;53303;47.476;8.084;2023-08-01T10:14:21;94469.94;;;22.77;51.21
66486;BME280;53303;47.476;8.084;2023-08-01T10:16:47;94456.91;;;22.65;51.39
66486;BME280;53303;47.476;8.084;2023-08-01T10:19:17;94465.47;;;22.74;51.31
66486;BME280;53303;47.476;8.084;2023-08-01T10:21:43;94465.69;;;22.76;51.49
66486;BME280;53303;47.476;8.084;2023-08-01T10:24:09;94472.53;;;22.75;51.43
66486;BME280;53303;47.476;8.084;2023-08-01T10:26:39;94470.28;;;22.74;51.17
66486;BME280;53303;47.476;8.084;2023-08-01T10:29:07;94471.38;;;22.71;51.10
66486;BME280;53303;47.476;8.084;2023-08-01T10:31:32;94472.69;;;22.70;51.16
66486;BME280;53303;47.476;8.084;2023-08-01T10:34:06;94481.25;;;22.79;51.21
66486;BME280;53303;47.476;8.084;2023-08-01T10:36:32;94472.91;;;22.79;51.11
66486;BME280;53303;47.476;8.084;2023-08-01T10:39:01;94474.22;;;22.78;51.08
66486;BME280;53303;47.476;8.084;2023-08-01T10:41:30;94474.41;;;22.80;51.04
66486;BME280;53303;47.476;8.084;2023-08-01T10:44:09;94461.03;;;22.79;51.05
66486;BME280;53303;47.476;8.084;2023-08-01T10:51:59;94465.09;;;22.78;51.02
66486;BME280;53303;47.476;8.084;2023-08-01T10:54:27;94473.81;;;22.74;50.85
66486;BME280;53303;47.476;8.084;2023-08-01T10:56:57;94468.25;;;22.74;50.96
66486;BME280;53303;47.476;8.084;2023-08-01T10:59:25;94474.94;;;22.79;50.70
66486;BME280;53303;47.476;8.084;2023-08-01T11:01:52;94465.88;;;22.78;50.56
66486;BME280;53303;47.476;8.084;2023-08-01T11:04:22;94482.16;;;22.74;50.67
66486;BME280;53303;47.476;8.084;2023-08-01T11:06:55;94501.84;;;22.76;50.66
66486;BME280;53303;47.476;8.084;2023-08-01T11:09:25;94510.38;;;22.78;50.70
66486;BME280;53303;47.476;8.084;2023-08-01T11:11:58;94530.19;;;22.75;50.67
66486;BME280;53303;47.476;8.084;2023-08-01T11:14:28;94540.78;;;22.76;50.67
66486;BME280;53303;47.476;8.084;2023-08-01T11:16:57;94520.72;;;22.78;50.70
66486;BME280;53303;47.476;8.084;2023-08-01T11:19:26;94526.88;;;22.76;50.67
66486;BME280;53303;47.476;8.084;2023-08-01T11:21:53;94533.16;;;22.77;50.65
66486;BME280;53303;47.476;8.084;2023-08-01T11:24:19;94519.59;;;22.73;50.45
66486;BME280;53303;47.476;8.084;2023-08-01T11:26:46;94519.25;;;22.77;50.55
66486;BME280;53303;47.476;8.084;2023-08-01T11:29:13;94511.47;;;22.75;50.62
66486;BME280;53303;47.476;8.084;2023-08-01T11:31:40;94506.44;;;22.74;50.60
66486;BME280;53303;47.476;8.084;2023-08-01T11:34:07;94504.41;;;22.74;50.67
66486;BME280;53303;47.476;8.084;2023-08-01T11:36:38;94495.13;;;22.72;50.69
66486;BME280;53303;47.476;8.084;2023-08-01T11:39:04;94482.16;;;22.74;50.88
66486;BME280;53303;47.476;8.084;2023-08-01T11:41:30;94473.81;;;22.74;50.98
66486;BME280;53303;47.476;8.084;2023-08-01T11:44:01;94479.19;;;22.72;50.78
66486;BME280;53303;47.476;8.084;2023-08-01T11:46:31;94487.16;;;22.76;50.57
66486;BME280;53303;47.476;8.084;2023-08-01T11:48:58;94489.41;;;22.77;50.96
66486;BME280;53303;47.476;8.084;2023-08-01T11:51:24;94481.41;;;22.74;51.02
66486;BME280;53303;47.476;8.084;2023-08-01T11:54:01;94479.19;;;22.72;51.15
66486;BME280;53303;47.476;8.084;2023-08-01T11:56:32;94466.97;;;22.75;51.09
66486;BME280;53303;47.476;8.084;2023-08-01T11:58:57;94469.56;;;22.73;51.29
66486;BME280;53303;47.476;8.084;2023-08-01T12:01:26;94478.28;;;22.77;51.18
66486;BME280;53303;47.476;8.084;2023-08-01T12:03:54;94475.50;;;22.77;51.33
66486;BME280;53303;47.476;8.084;2023-08-01T12:06:23;94458.63;;;22.75;51.22
66486;BME280;53303;47.476;8.084;2023-08-01T12:08:50;94464.56;;;22.79;51.30
66486;BME280;53303;47.476;8.084;2023-08-01T12:11:27;94464.91;;;22.76;51.29
66486;BME280;53303;47.476;8.084;2023-08-01T12:14:09;94462.31;;;22.78;51.35
66486;BME280;53303;47.476;8.084;2023-08-01T12:16:39;94458.47;;;22.81;51.46
66486;BME280;53303;47.476;8.084;2023-08-01T12:19:08;94459.19;;;22.81;51.42
66486;BME280;53303;47.476;8.084;2023-08-01T12:21:36;94454.75;;;22.78;51.60
66486;BME280;53303;47.476;8.084;2023-08-01T12:24:02;94439.88;;;22.76;51.61
66486;BME280;53303;47.476;8.084;2023-08-01T12:26:33;94446.78;;;22.83;51.49
66486;BME280;53303;47.476;8.084;2023-08-01T12:28:58;94449.91;;;22.79;51.60
66486;BME280;53303;47.476;8.084;2023-08-01T12:31:26;94454.78;;;22.86;51.70
66486;BME280;53303;47.476;8.084;2023-08-01T12:33:52;94475.75;;;22.87;51.57
66486;BME280;53303;47.476;8.084;2023-08-01T12:36:22;94473.31;;;22.84;51.50
66486;BME280;53303;47.476;8.084;2023-08-01T12:38:48;94485.38;;;22.86;51.81
66486;BME280;53303;47.476;8.084;2023-08-01T12:41:18;94480.53;;;22.87;51.26
66486;BME280;53303;47.476;8.084;2023-08-01T12:43:43;94456.34;;;22.66;51.44
66486;BME280;53303;47.476;8.084;2023-08-01T12:46:11;94477.94;;;22.89;51.51
66486;BME280;53303;47.476;8.084;2023-08-01T12:48:41;94485.00;;;22.90;51.24
66486;BME280;53303;47.476;8.084;2023-08-01T12:51:08;94472.72;;;22.77;51.53
66486;BME280;53303;47.476;8.084;2023-08-01T12:53:34;94485.56;;;22.88;51.39
66486;BME280;53303;47.476;8.084;2023-08-01T12:56:05;94494.50;;;22.94;51.36
66486;BME280;53303;47.476;8.084;2023-08-01T12:58:30;94480.94;;;22.91;51.46
66486;BME280;53303;47.476;8.084;2023-08-01T13:00:55;94465.34;;;22.88;51.67
66486;BME280;53303;47.476;8.084;2023-08-01T13:03:21;94483.72;;;22.91;51.46
66486;BME280;53303;47.476;8.084;2023-08-01T13:05:46;94478.34;;;22.93;51.54
66486;BME280;53303;47.476;8.084;2023-08-01T13:08:11;94489.69;;;22.95;51.35